sensor_id;sensor_type;location;lat;lon;timestamp;temperature;humidity
15983;DHT22;14442;50.196;8.096;2023-02-13T00:00:44;23.70;40.60
15983;DHT22;14442;50.196;8.096;2023-02-13T00:03:11;23.70;40.80
15983;DHT22;14442;50.196;8.096;2023-02-13T00:05:38;23.70;40.60
15983;DHT22;14442;50.196;8.096;2023-02-13T00:08:04;23.70;40.30
15983;DHT22;14442;50.196;8.096;2023-02-13T00:10:32;23.60;40.20
15983;DHT22;14442;50.196;8.096;2023-02-13T00:12:59;23.60;40.10
15983;DHT22;14442;50.196;8.096;2023-02-13T00:15:26;23.60;40.10
15983;DHT22;14442;50.196;8.096;2023-02-13T00:17:52;23.50;40.00
15983;DHT22;14442;50.196;8.096;2023-02-13T00:20:19;23.50;40.00
15983;DHT22;14442;50.196;8.096;2023-02-13T00:22:46;23.50;40.00
15983;DHT22;14442;50.196;8.096;2023-02-13T00:25:13;23.40;39.90
15983;DHT22;14442;50.196;8.096;2023-02-13T00:27:41;23.40;39.90
15983;DHT22;14442;50.196;8.096;2023-02-13T00:30:08;23.40;39.90
15983;DHT22;14442;50.196;8.096;2023-02-13T00:32:35;23.40;39.90
15983;DHT22;14442;50.196;8.096;2023-02-13T00:35:02;23.40;39.90
15983;DHT22;14442;50.196;8.096;2023-02-13T00:37:28;23.40;39.80
15983;DHT22;14442;50.196;8.096;2023-02-13T00:39:55;23.40;39.70
15983;DHT22;14442;50.196;8.096;2023-02-13T00:42:22;23.40;39.70
15983;DHT22;14442;50.196;8.096;2023-02-13T00:44:52;23.40;39.70
15983;DHT22;14442;50.196;8.096;2023-02-13T00:47:19;23.40;39.70
15983;DHT22;14442;50.196;8.096;2023-02-13T00:49:46;23.40;39.60
15983;DHT22;14442;50.196;8.096;2023-02-13T00:52:12;23.40;39.50
15983;DHT22;14442;50.196;8.096;2023-02-13T00:54:39;23.40;39.50
15983;DHT22;14442;50.196;8.096;2023-02-13T00:57:06;23.40;39.50
15983;DHT22;14442;50.196;8.096;2023-02-13T00:59:32;23.40;39.50
15983;DHT22;14442;50.196;8.096;2023-02-13T01:02:00;23.40;39.40
15983;DHT22;14442;50.196;8.096;2023-02-13T01:04:27;23.40;39.40
15983;DHT22;14442;50.196;8.096;2023-02-13T01:06:54;23.40;39.40
15983;DHT22;14442;50.196;8.096;2023-02-13T01:09:20;23.40;39.20
15983;DHT22;14442;50.196;8.096;2023-02-13T01:11:47;23.40;39.20
15983;DHT22;14442;50.196;8.096;2023-02-13T01:14:14;23.50;39.20
15983;DHT22;14442;50.196;8.096;2023-02-13T01:16:40;23.50;39.20
15983;DHT22;14442;50.196;8.096;2023-02-13T01:19:08;23.50;39.20
15983;DHT22;14442;50.196;8.096;2023-02-13T01:21:35;23.50;39.00
15983;DHT22;14442;50.196;8.096;2023-02-13T01:24:03;23.50;39.00
15983;DHT22;14442;50.196;8.096;2023-02-13T01:26:30;23.60;39.00
15983;DHT22;14442;50.196;8.096;2023-02-13T01:28:56;23.60;38.90
15983;DHT22;14442;50.196;8.096;2023-02-13T01:31:23;23.60;38.90
15983;DHT22;14442;50.196;8.096;2023-02-13T01:33:50;23.60;38.80
15983;DHT22;14442;50.196;8.096;2023-02-13T01:36:18;23.60;38.70
15983;DHT22;14442;50.196;8.096;2023-02-13T01:38:45;23.60;38.70
15983;DHT22;14442;50.196;8.096;2023-02-13T01:41:12;23.60;38.60
15983;DHT22;14442;50.196;8.096;2023-02-13T01:43:45;23.70;38.70
15983;DHT22;14442;50.196;8.096;2023-02-13T01:46:16;23.70;38.60
15983;DHT22;14442;50.196;8.096;2023-02-13T01:48:43;23.70;38.50
15983;DHT22;14442;50.196;8.096;2023-02-13T01:51:13;23.70;38.50
15983;DHT22;14442;50.196;8.096;2023-02-13T01:53:44;23.70;38.50
15983;DHT22;14442;50.196;8.096;2023-02-13T01:56:15;23.70;38.40
15983;DHT22;14442;50.196;8.096;2023-02-13T01:58:45;23.70;38.50
15983;DHT22;14442;50.196;8.096;2023-02-13T02:01:13;23.70;38.40
15983;DHT22;14442;50.196;8.096;2023-02-13T02:03:42;23.70;38.40
15983;DHT22;14442;50.196;8.096;2023-02-13T02:06:14;23.70;38.50
15983;DHT22;14442;50.196;8.096;2023-02-13T02:08:43;23.70;38.30
15983;DHT22;14442;50.196;8.096;2023-02-13T02:11:27;23.70;38.30
15983;DHT22;14442;50.196;8.096;2023-02-13T02:13:57;23.70;38.30
15983;DHT22;14442;50.196;8.096;2023-02-13T02:16:25;23.80;38.40
15983;DHT22;14442;50.196;8.096;2023-02-13T02:18:52;23.70;38.20
15983;DHT22;14442;50.196;8.096;2023-02-13T02:21:45;23.70;38.20
15983;DHT22;14442;50.196;8.096;2023-02-13T02:24:30;23.80;38.30
15983;DHT22;14442;50.196;8.096;2023-02-13T02:33:41;23.70;38.10
15983;DHT22;14442;50.196;8.096;2023-02-13T02:36:21;23.70;38.10
15983;DHT22;14442;50.196;8.096;2023-02-13T02:39:02;23.70;38.20
15983;DHT22;14442;50.196;8.096;2023-02-13T02:41:40;23.70;38.10
15983;DHT22;14442;50.196;8.096;2023-02-13T02:44:17;23.70;38.10
15983;DHT22;14442;50.196;8.096;2023-02-13T02:46:56;23.70;38.10
15983;DHT22;14442;50.196;8.096;2023-02-13T02:49:48;23.70;38.00
15983;DHT22;14442;50.196;8.096;2023-02-13T02:52:32;23.70;38.10
15983;DHT22;14442;50.196;8.096;2023-02-13T02:55:06;23.70;38.10
15983;DHT22;14442;50.196;8.096;2023-02-13T02:57:39;23.70;38.00
15983;DHT22;14442;50.196;8.096;2023-02-13T03:00:25;23.70;38.00
15983;DHT22;14442;50.196;8.096;2023-02-13T03:03:15;23.70;38.00
15983;DHT22;14442;50.196;8.096;2023-02-13T03:06:03;23.70;38.00
15983;DHT22;14442;50.196;8.096;2023-02-13T03:08:36;23.70;38.10
15983;DHT22;14442;50.196;8.096;2023-02-13T03:11:21;23.70;38.00
15983;DHT22;14442;50.196;8.096;2023-02-13T03:14:08;23.70;38.00
15983;DHT22;14442;50.196;8.096;2023-02-13T03:16:36;23.70;38.00
15983;DHT22;14442;50.196;8.096;2023-02-13T03:19:27;23.70;38.00
15983;DHT22;14442;50.196;8.096;2023-02-13T03:22:24;23.70;38.00
15983;DHT22;14442;50.196;8.096;2023-02-13T03:25:02;23.60;38.00
15983;DHT22;14442;50.196;8.096;2023-02-13T03:27:40;23.60;38.00
15983;DHT22;14442;50.196;8.096;2023-02-13T03:30:34;23.60;37.90
15983;DHT22;14442;50.196;8.096;2023-02-13T03:33:12;23.60;38.00
15983;DHT22;14442;50.196;8.096;2023-02-13T03:35:46;23.60;38.00
15983;DHT22;14442;50.196;8.096;2023-02-13T03:38:37;23.60;38.00
15983;DHT22;14442;50.196;8.096;2023-02-13T03:41:12;23.50;37.90
15983;DHT22;14442;50.196;8.096;2023-02-13T03:46:38;23.50;37.90
15983;DHT22;14442;50.196;8.096;2023-02-13T03:49:10;23.50;37.90
15983;DHT22;14442;50.196;8.096;2023-02-13T03:51:58;23.50;37.90
15983;DHT22;14442;50.196;8.096;2023-02-13T03:54:32;23.50;38.00
15983;DHT22;14442;50.196;8.096;2023-02-13T03:57:19;23.50;38.00
15983;DHT22;14442;50.196;8.096;2023-02-13T04:00:09;23.50;38.00
15983;DHT22;14442;50.196;8.096;2023-02-13T04:02:41;23.40;38.60
15983;DHT22;14442;50.196;8.096;2023-02-13T04:05:14;23.40;37.90
15983;DHT22;14442;50.196;8.096;2023-02-13T04:07:41;23.40;37.90
15983;DHT22;14442;50.196;8.096;2023-02-13T04:10:10;23.40;37.90
15983;DHT22;14442;50.196;8.096;2023-02-13T04:12:42;23.40;37.90
15983;DHT22;14442;50.196;8.096;2023-02-13T04:15:15;23.40;37.90
15983;DHT22;14442;50.196;8.096;2023-02-13T04:17:47;23.40;38.00
15983;DHT22;14442;50.196;8.096;2023-02-13T04:20:14;23.40;38.00
15983;DHT22;14442;50.196;8.096;2023-02-13T04:22:42;23.30;37.90
15983;DHT22;14442;50.196;8.096;2023-02-13T04:25:11;23.30;37.90
15983;DHT22;14442;50.196;8.096;2023-02-13T04:27:39;23.30;37.90
15983;DHT22;14442;50.196;8.096;2023-02-13T04:30:07;23.30;37.90
15983;DHT22;14442;50.196;8.096;2023-02-13T04:32:35;23.20;37.90
15983;DHT22;14442;50.196;8.096;2023-02-13T04:35:01;23.30;37.90
15983;DHT22;14442;50.196;8.096;2023-02-13T04:37:28;23.30;37.90
15983;DHT22;14442;50.196;8.096;2023-02-13T04:39:55;23.30;38.00
15983;DHT22;14442;50.196;8.096;2023-02-13T04:42:23;23.30;38.00
15983;DHT22;14442;50.196;8.096;2023-02-13T04:44:49;23.20;38.50
15983;DHT22;14442;50.196;8.096;2023-02-13T04:47:16;23.20;37.90
15983;DHT22;14442;50.196;8.096;2023-02-13T04:49:43;23.10;37.80
15983;DHT22;14442;50.196;8.096;2023-02-13T04:52:09;23.10;37.80
15983;DHT22;14442;50.196;8.096;2023-02-13T04:54:36;23.20;37.90
15983;DHT22;14442;50.196;8.096;2023-02-13T04:57:02;23.10;37.80
15983;DHT22;14442;50.196;8.096;2023-02-13T04:59:30;23.10;37.90
15983;DHT22;14442;50.196;8.096;2023-02-13T05:01:57;23.10;37.90
15983;DHT22;14442;50.196;8.096;2023-02-13T05:04:24;23.10;37.90
15983;DHT22;14442;50.196;8.096;2023-02-13T05:06:51;23.10;37.90
15983;DHT22;14442;50.196;8.096;2023-02-13T05:09:18;23.10;37.90
15983;DHT22;14442;50.196;8.096;2023-02-13T05:11:44;23.00;37.80
15983;DHT22;14442;50.196;8.096;2023-02-13T05:14:11;23.00;37.90
15983;DHT22;14442;50.196;8.096;2023-02-13T05:16:39;23.00;37.90
15983;DHT22;14442;50.196;8.096;2023-02-13T05:19:06;23.00;37.80
15983;DHT22;14442;50.196;8.096;2023-02-13T05:21:32;23.00;37.90
15983;DHT22;14442;50.196;8.096;2023-02-13T05:24:17;23.00;37.80
15983;DHT22;14442;50.196;8.096;2023-02-13T05:26:43;23.00;37.90
15983;DHT22;14442;50.196;8.096;2023-02-13T05:29:10;22.90;37.80
15983;DHT22;14442;50.196;8.096;2023-02-13T05:31:49;23.00;37.80
15983;DHT22;14442;50.196;8.096;2023-02-13T05:34:16;22.90;37.80
15983;DHT22;14442;50.196;8.096;2023-02-13T05:36:43;22.90;37.80
15983;DHT22;14442;50.196;8.096;2023-02-13T05:39:10;22.90;37.80
15983;DHT22;14442;50.196;8.096;2023-02-13T05:41:36;22.90;37.80
15983;DHT22;14442;50.196;8.096;2023-02-13T05:44:03;22.90;37.80
15983;DHT22;14442;50.196;8.096;2023-02-13T05:46:30;22.90;37.90
15983;DHT22;14442;50.196;8.096;2023-02-13T05:48:58;22.90;37.90
15983;DHT22;14442;50.196;8.096;2023-02-13T05:51:25;22.90;37.90
15983;DHT22;14442;50.196;8.096;2023-02-13T05:53:51;22.90;37.90
15983;DHT22;14442;50.196;8.096;2023-02-13T05:56:18;22.80;37.80
15983;DHT22;14442;50.196;8.096;2023-02-13T05:58:45;22.80;37.80
15983;DHT22;14442;50.196;8.096;2023-02-13T06:01:12;22.80;37.80
15983;DHT22;14442;50.196;8.096;2023-02-13T06:03:38;22.70;37.80
15983;DHT22;14442;50.196;8.096;2023-02-13T06:06:07;22.70;37.70
15983;DHT22;14442;50.196;8.096;2023-02-13T06:08:34;22.80;37.80
15983;DHT22;14442;50.196;8.096;2023-02-13T06:11:01;22.70;37.80
15983;DHT22;14442;50.196;8.096;2023-02-13T06:13:27;22.70;37.80
15983;DHT22;14442;50.196;8.096;2023-02-13T06:15:54;22.70;37.80
15983;DHT22;14442;50.196;8.096;2023-02-13T06:18:21;22.70;37.80
15983;DHT22;14442;50.196;8.096;2023-02-13T06:20:48;22.70;37.80
15983;DHT22;14442;50.196;8.096;2023-02-13T06:23:16;22.60;37.70
15983;DHT22;14442;50.196;8.096;2023-02-13T06:25:43;22.60;37.70
15983;DHT22;14442;50.196;8.096;2023-02-13T06:28:09;22.70;37.80
15983;DHT22;14442;50.196;8.096;2023-02-13T06:30:36;22.60;37.80
15983;DHT22;14442;50.196;8.096;2023-02-13T06:33:03;22.60;37.80
15983;DHT22;14442;50.196;8.096;2023-02-13T06:35:29;22.60;37.80
15983;DHT22;14442;50.196;8.096;2023-02-13T06:37:56;22.60;37.80
15983;DHT22;14442;50.196;8.096;2023-02-13T06:40:24;22.50;37.70
15983;DHT22;14442;50.196;8.096;2023-02-13T06:42:51;22.60;37.80
15983;DHT22;14442;50.196;8.096;2023-02-13T06:45:17;22.50;37.80
15983;DHT22;14442;50.196;8.096;2023-02-13T06:47:46;22.50;37.90
15983;DHT22;14442;50.196;8.096;2023-02-13T06:50:14;22.50;37.80
15983;DHT22;14442;50.196;8.096;2023-02-13T06:52:45;22.50;37.80
15983;DHT22;14442;50.196;8.096;2023-02-13T06:55:12;22.50;37.80
15983;DHT22;14442;50.196;8.096;2023-02-13T06:57:40;22.50;37.80
15983;DHT22;14442;50.196;8.096;2023-02-13T07:00:08;22.40;37.80
15983;DHT22;14442;50.196;8.096;2023-02-13T07:02:37;22.40;37.80
15983;DHT22;14442;50.196;8.096;2023-02-13T07:05:04;22.40;37.80
15983;DHT22;14442;50.196;8.096;2023-02-13T07:07:32;22.40;37.80
15983;DHT22;14442;50.196;8.096;2023-02-13T07:09:59;22.40;37.80
15983;DHT22;14442;50.196;8.096;2023-02-13T07:12:25;22.40;37.80
15983;DHT22;14442;50.196;8.096;2023-02-13T07:14:53;22.40;37.80
15983;DHT22;14442;50.196;8.096;2023-02-13T07:17:20;22.30;37.80
15983;DHT22;14442;50.196;8.096;2023-02-13T07:19:46;22.30;37.80
15983;DHT22;14442;50.196;8.096;2023-02-13T07:22:13;22.30;37.80
15983;DHT22;14442;50.196;8.096;2023-02-13T07:24:40;22.30;37.80
15983;DHT22;14442;50.196;8.096;2023-02-13T07:27:06;22.30;37.80
15983;DHT22;14442;50.196;8.096;2023-02-13T07:29:33;22.30;37.80
15983;DHT22;14442;50.196;8.096;2023-02-13T07:32:01;22.30;37.80
15983;DHT22;14442;50.196;8.096;2023-02-13T07:34:28;22.30;37.80
15983;DHT22;14442;50.196;8.096;2023-02-13T07:36:54;22.30;37.80
15983;DHT22;14442;50.196;8.096;2023-02-13T07:39:21;22.20;37.70
15983;DHT22;14442;50.196;8.096;2023-02-13T07:41:48;22.10;37.80
15983;DHT22;14442;50.196;8.096;2023-02-13T07:44:14;22.10;37.80
15983;DHT22;14442;50.196;8.096;2023-02-13T07:46:41;22.10;37.80
15983;DHT22;14442;50.196;8.096;2023-02-13T07:49:09;22.10;37.80
15983;DHT22;14442;50.196;8.096;2023-02-13T07:51:36;22.10;37.80
15983;DHT22;14442;50.196;8.096;2023-02-13T07:54:03;22.00;37.80
15983;DHT22;14442;50.196;8.096;2023-02-13T07:56:29;22.00;37.90
15983;DHT22;14442;50.196;8.096;2023-02-13T07:58:56;22.00;37.80
15983;DHT22;14442;50.196;8.096;2023-02-13T08:01:23;22.10;37.70
15983;DHT22;14442;50.196;8.096;2023-02-13T08:03:49;22.10;37.60
15983;DHT22;14442;50.196;8.096;2023-02-13T08:06:18;22.10;37.60
15983;DHT22;14442;50.196;8.096;2023-02-13T08:08:46;22.20;38.20
15983;DHT22;14442;50.196;8.096;2023-02-13T08:11:22;22.20;37.50
15983;DHT22;14442;50.196;8.096;2023-02-13T08:14:07;22.30;37.70
15983;DHT22;14442;50.196;8.096;2023-02-13T08:16:34;22.40;38.20
15983;DHT22;14442;50.196;8.096;2023-02-13T08:19:00;22.30;37.80
15983;DHT22;14442;50.196;8.096;2023-02-13T08:21:29;22.40;37.90
15983;DHT22;14442;50.196;8.096;2023-02-13T08:23:56;22.40;37.80
15983;DHT22;14442;50.196;8.096;2023-02-13T08:26:23;22.40;37.70
15983;DHT22;14442;50.196;8.096;2023-02-13T08:28:49;22.50;37.70
15983;DHT22;14442;50.196;8.096;2023-02-13T08:31:16;22.50;37.70
15983;DHT22;14442;50.196;8.096;2023-02-13T08:33:43;22.60;37.80
15983;DHT22;14442;50.196;8.096;2023-02-13T08:36:09;22.60;37.90
15983;DHT22;14442;50.196;8.096;2023-02-13T08:38:37;22.60;37.90
15983;DHT22;14442;50.196;8.096;2023-02-13T08:41:04;22.60;37.90
15983;DHT22;14442;50.196;8.096;2023-02-13T08:43:31;22.70;38.10
15983;DHT22;14442;50.196;8.096;2023-02-13T08:45:58;22.70;38.10
15983;DHT22;14442;50.196;8.096;2023-02-13T08:48:25;22.70;38.00
15983;DHT22;14442;50.196;8.096;2023-02-13T08:50:52;22.70;38.00
15983;DHT22;14442;50.196;8.096;2023-02-13T08:53:18;22.70;38.00
15983;DHT22;14442;50.196;8.096;2023-02-13T08:55:52;22.80;37.90
15983;DHT22;14442;50.196;8.096;2023-02-13T08:58:19;22.80;39.70
15983;DHT22;14442;50.196;8.096;2023-02-13T09:00:45;22.90;40.20
15983;DHT22;14442;50.196;8.096;2023-02-13T09:03:12;22.90;40.80
15983;DHT22;14442;50.196;8.096;2023-02-13T09:05:39;22.90;39.40
15983;DHT22;14442;50.196;8.096;2023-02-13T09:08:05;22.90;40.20
15983;DHT22;14442;50.196;8.096;2023-02-13T09:10:33;22.90;39.80
15983;DHT22;14442;50.196;8.096;2023-02-13T09:13:01;22.90;39.80
15983;DHT22;14442;50.196;8.096;2023-02-13T09:15:28;22.90;40.00
15983;DHT22;14442;50.196;8.096;2023-02-13T09:17:55;22.90;39.10
15983;DHT22;14442;50.196;8.096;2023-02-13T09:20:22;23.00;39.20
15983;DHT22;14442;50.196;8.096;2023-02-13T09:22:49;23.00;39.00
15983;DHT22;14442;50.196;8.096;2023-02-13T09:25:15;23.00;39.10
15983;DHT22;14442;50.196;8.096;2023-02-13T09:27:44;23.00;39.30
15983;DHT22;14442;50.196;8.096;2023-02-13T09:30:13;23.00;39.00
15983;DHT22;14442;50.196;8.096;2023-02-13T09:32:47;23.00;38.50
15983;DHT22;14442;50.196;8.096;2023-02-13T09:35:15;23.00;38.60
15983;DHT22;14442;50.196;8.096;2023-02-13T09:37:41;23.00;38.50
15983;DHT22;14442;50.196;8.096;2023-02-13T09:40:20;23.00;38.20
15983;DHT22;14442;50.196;8.096;2023-02-13T09:42:49;23.10;38.10
15983;DHT22;14442;50.196;8.096;2023-02-13T09:45:19;23.10;37.90
15983;DHT22;14442;50.196;8.096;2023-02-13T09:47:47;23.00;37.80
15983;DHT22;14442;50.196;8.096;2023-02-13T09:50:17;23.10;37.90
15983;DHT22;14442;50.196;8.096;2023-02-13T09:52:45;23.10;37.70
15983;DHT22;14442;50.196;8.096;2023-02-13T09:55:17;23.00;37.70
15983;DHT22;14442;50.196;8.096;2023-02-13T09:57:50;23.00;37.70
15983;DHT22;14442;50.196;8.096;2023-02-13T10:00:21;23.10;37.80
15983;DHT22;14442;50.196;8.096;2023-02-13T10:03:11;23.10;37.60
15983;DHT22;14442;50.196;8.096;2023-02-13T10:05:46;23.10;37.50
15983;DHT22;14442;50.196;8.096;2023-02-13T10:08:24;23.20;37.50
15983;DHT22;14442;50.196;8.096;2023-02-13T10:10:57;23.20;37.50
15983;DHT22;14442;50.196;8.096;2023-02-13T10:13:43;23.20;37.60
15983;DHT22;14442;50.196;8.096;2023-02-13T10:16:16;23.10;37.60
15983;DHT22;14442;50.196;8.096;2023-02-13T10:18:49;23.10;37.60
15983;DHT22;14442;50.196;8.096;2023-02-13T10:21:19;23.20;37.60
15983;DHT22;14442;50.196;8.096;2023-02-13T10:23:50;23.20;37.60
15983;DHT22;14442;50.196;8.096;2023-02-13T10:26:21;23.20;37.60
15983;DHT22;14442;50.196;8.096;2023-02-13T10:28:54;23.30;37.60
15983;DHT22;14442;50.196;8.096;2023-02-13T10:31:51;23.40;37.50
15983;DHT22;14442;50.196;8.096;2023-02-13T10:34:23;23.40;37.50
15983;DHT22;14442;50.196;8.096;2023-02-13T10:36:51;23.40;37.40
15983;DHT22;14442;50.196;8.096;2023-02-13T10:39:22;23.50;37.40
15983;DHT22;14442;50.196;8.096;2023-02-13T10:41:52;23.50;37.40
15983;DHT22;14442;50.196;8.096;2023-02-13T10:44:45;23.50;37.40
15983;DHT22;14442;50.196;8.096;2023-02-13T10:47:28;23.60;37.40
15983;DHT22;14442;50.196;8.096;2023-02-13T10:50:05;23.60;37.40
15983;DHT22;14442;50.196;8.096;2023-02-13T10:52:42;23.60;37.30
15983;DHT22;14442;50.196;8.096;2023-02-13T10:55:28;23.60;37.40
15983;DHT22;14442;50.196;8.096;2023-02-13T10:58:05;23.60;37.40
15983;DHT22;14442;50.196;8.096;2023-02-13T11:00:36;23.60;37.40
15983;DHT22;14442;50.196;8.096;2023-02-13T11:03:16;23.60;37.40
15983;DHT22;14442;50.196;8.096;2023-02-13T11:05:43;23.70;37.50
15983;DHT22;14442;50.196;8.096;2023-02-13T11:08:17;23.70;37.40
15983;DHT22;14442;50.196;8.096;2023-02-13T11:10:44;23.70;37.40
15983;DHT22;14442;50.196;8.096;2023-02-13T11:13:16;23.70;37.30
15983;DHT22;14442;50.196;8.096;2023-02-13T11:15:56;23.70;37.30
15983;DHT22;14442;50.196;8.096;2023-02-13T11:18:26;23.70;37.30
15983;DHT22;14442;50.196;8.096;2023-02-13T11:21:06;23.80;37.40
15983;DHT22;14442;50.196;8.096;2023-02-13T11:23:39;23.80;37.40
15983;DHT22;14442;50.196;8.096;2023-02-13T11:26:09;23.80;37.40
15983;DHT22;14442;50.196;8.096;2023-02-13T11:28:43;23.70;37.40
15983;DHT22;14442;50.196;8.096;2023-02-13T11:31:22;23.80;37.40
15983;DHT22;14442;50.196;8.096;2023-02-13T11:33:51;23.80;37.40
15983;DHT22;14442;50.196;8.096;2023-02-13T11:36:23;23.80;37.30
15983;DHT22;14442;50.196;8.096;2023-02-13T11:38:57;23.80;37.40
15983;DHT22;14442;50.196;8.096;2023-02-13T11:41:24;23.90;37.40
15983;DHT22;14442;50.196;8.096;2023-02-13T11:43:54;23.90;37.40
15983;DHT22;14442;50.196;8.096;2023-02-13T11:46:27;23.90;37.40
15983;DHT22;14442;50.196;8.096;2023-02-13T11:49:00;23.90;37.40
15983;DHT22;14442;50.196;8.096;2023-02-13T11:51:38;23.90;37.40
15983;DHT22;14442;50.196;8.096;2023-02-13T11:54:06;23.90;37.40
15983;DHT22;14442;50.196;8.096;2023-02-13T11:56:48;23.90;37.40
15983;DHT22;14442;50.196;8.096;2023-02-13T11:59:15;23.90;37.30
15983;DHT22;14442;50.196;8.096;2023-02-13T12:01:42;23.90;37.30
15983;DHT22;14442;50.196;8.096;2023-02-13T12:04:16;23.90;38.00
15983;DHT22;14442;50.196;8.096;2023-02-13T12:06:59;24.00;37.40
15983;DHT22;14442;50.196;8.096;2023-02-13T12:09:26;24.00;37.40
15983;DHT22;14442;50.196;8.096;2023-02-13T12:11:56;24.10;37.40
15983;DHT22;14442;50.196;8.096;2023-02-13T12:14:26;24.10;37.40
15983;DHT22;14442;50.196;8.096;2023-02-13T12:16:59;24.10;37.40
15983;DHT22;14442;50.196;8.096;2023-02-13T12:19:34;24.10;37.40
15983;DHT22;14442;50.196;8.096;2023-02-13T12:22:30;24.10;37.50
15983;DHT22;14442;50.196;8.096;2023-02-13T12:25:24;24.10;37.40
15983;DHT22;14442;50.196;8.096;2023-02-13T12:28:09;24.10;37.40
15983;DHT22;14442;50.196;8.096;2023-02-13T12:30:50;24.10;37.40
15983;DHT22;14442;50.196;8.096;2023-02-13T12:33:32;24.10;37.50
15983;DHT22;14442;50.196;8.096;2023-02-13T12:36:08;24.10;37.60
15983;DHT22;14442;50.196;8.096;2023-02-13T12:38:46;24.10;37.60
15983;DHT22;14442;50.196;8.096;2023-02-13T12:41:17;24.10;37.60
15983;DHT22;14442;50.196;8.096;2023-02-13T12:44:10;24.10;37.60
15983;DHT22;14442;50.196;8.096;2023-02-13T12:46:47;24.20;37.70
15983;DHT22;14442;50.196;8.096;2023-02-13T12:49:32;24.20;37.70
15983;DHT22;14442;50.196;8.096;2023-02-13T12:52:18;24.20;37.70
15983;DHT22;14442;50.196;8.096;2023-02-13T12:54:56;24.10;37.60
15983;DHT22;14442;50.196;8.096;2023-02-13T12:57:46;24.10;37.80
15983;DHT22;14442;50.196;8.096;2023-02-13T13:00:28;24.10;37.80
15983;DHT22;14442;50.196;8.096;2023-02-13T13:03:18;24.20;37.80
15983;DHT22;14442;50.196;8.096;2023-02-13T13:09:02;24.20;37.80
15983;DHT22;14442;50.196;8.096;2023-02-13T13:11:45;24.20;37.80
15983;DHT22;14442;50.196;8.096;2023-02-13T13:14:21;24.20;37.80
15983;DHT22;14442;50.196;8.096;2023-02-13T13:17:00;24.20;37.90
15983;DHT22;14442;50.196;8.096;2023-02-13T13:19:35;24.20;37.90
15983;DHT22;14442;50.196;8.096;2023-02-13T13:22:07;24.20;37.90
15983;DHT22;14442;50.196;8.096;2023-02-13T13:24:46;24.20;37.90
15983;DHT22;14442;50.196;8.096;2023-02-13T13:27:19;24.20;37.90
15983;DHT22;14442;50.196;8.096;2023-02-13T13:29:51;24.20;37.90
15983;DHT22;14442;50.196;8.096;2023-02-13T13:32:20;24.20;37.90
15983;DHT22;14442;50.196;8.096;2023-02-13T13:34:47;24.20;38.00
15983;DHT22;14442;50.196;8.096;2023-02-13T13:37:21;24.20;37.90
15983;DHT22;14442;50.196;8.096;2023-02-13T13:39:57;24.20;37.90
15983;DHT22;14442;50.196;8.096;2023-02-13T13:42:32;24.10;37.90
15983;DHT22;14442;50.196;8.096;2023-02-13T13:45:21;24.20;38.00
15983;DHT22;14442;50.196;8.096;2023-02-13T13:48:03;24.10;37.90
15983;DHT22;14442;50.196;8.096;2023-02-13T13:50:35;24.10;37.90
15983;DHT22;14442;50.196;8.096;2023-02-13T13:53:10;24.10;38.00
15983;DHT22;14442;50.196;8.096;2023-02-13T13:56:04;24.10;38.00
15983;DHT22;14442;50.196;8.096;2023-02-13T13:58:36;24.10;38.00
15983;DHT22;14442;50.196;8.096;2023-02-13T14:01:16;24.10;38.00
15983;DHT22;14442;50.196;8.096;2023-02-13T14:03:44;24.00;38.00
15983;DHT22;14442;50.196;8.096;2023-02-13T14:06:12;24.00;38.10
15983;DHT22;14442;50.196;8.096;2023-02-13T14:11:33;24.00;38.10
15983;DHT22;14442;50.196;8.096;2023-02-13T14:14:01;23.90;38.00
15983;DHT22;14442;50.196;8.096;2023-02-13T14:16:39;23.90;38.00
15983;DHT22;14442;50.196;8.096;2023-02-13T14:19:23;23.90;38.70
15983;DHT22;14442;50.196;8.096;2023-02-13T14:21:51;23.90;38.10
15983;DHT22;14442;50.196;8.096;2023-02-13T14:24:18;23.90;38.10
15983;DHT22;14442;50.196;8.096;2023-02-13T14:26:52;23.90;38.10
15983;DHT22;14442;50.196;8.096;2023-02-13T14:29:29;23.80;38.10
15983;DHT22;14442;50.196;8.096;2023-02-13T14:32:18;23.80;38.10
15983;DHT22;14442;50.196;8.096;2023-02-13T14:34:54;23.80;38.10
15983;DHT22;14442;50.196;8.096;2023-02-13T14:37:28;23.70;38.00
15983;DHT22;14442;50.196;8.096;2023-02-13T14:40:28;23.70;38.70
15983;DHT22;14442;50.196;8.096;2023-02-13T14:43:05;23.70;38.10
15983;DHT22;14442;50.196;8.096;2023-02-13T14:45:39;23.70;38.10
15983;DHT22;14442;50.196;8.096;2023-02-13T14:48:12;23.60;38.10
15983;DHT22;14442;50.196;8.096;2023-02-13T14:50:44;23.70;38.20
15983;DHT22;14442;50.196;8.096;2023-02-13T14:53:17;23.60;38.10
15983;DHT22;14442;50.196;8.096;2023-02-13T14:55:48;23.70;38.20
15983;DHT22;14442;50.196;8.096;2023-02-13T14:58:22;23.60;38.20
15983;DHT22;14442;50.196;8.096;2023-02-13T15:00:53;23.60;38.20
15983;DHT22;14442;50.196;8.096;2023-02-13T15:03:26;23.50;38.10
15983;DHT22;14442;50.196;8.096;2023-02-13T15:05:55;23.50;38.10
15983;DHT22;14442;50.196;8.096;2023-02-13T15:08:25;23.50;38.10
15983;DHT22;14442;50.196;8.096;2023-02-13T15:10:54;23.50;38.10
15983;DHT22;14442;50.196;8.096;2023-02-13T15:13:24;23.40;38.20
15983;DHT22;14442;50.196;8.096;2023-02-13T15:15:53;23.40;38.10
15983;DHT22;14442;50.196;8.096;2023-02-13T15:18:23;23.40;38.20
15983;DHT22;14442;50.196;8.096;2023-02-13T15:20:52;23.40;38.20
15983;DHT22;14442;50.196;8.096;2023-02-13T15:23:21;23.40;38.20
15983;DHT22;14442;50.196;8.096;2023-02-13T15:25:56;23.40;38.20
15983;DHT22;14442;50.196;8.096;2023-02-13T15:28:25;23.40;38.20
15983;DHT22;14442;50.196;8.096;2023-02-13T15:30:53;23.30;38.10
15983;DHT22;14442;50.196;8.096;2023-02-13T15:33:23;23.30;38.20
15983;DHT22;14442;50.196;8.096;2023-02-13T15:35:57;23.30;38.20
15983;DHT22;14442;50.196;8.096;2023-02-13T15:38:26;23.30;38.20
15983;DHT22;14442;50.196;8.096;2023-02-13T15:40:56;23.30;38.20
15983;DHT22;14442;50.196;8.096;2023-02-13T15:43:31;23.20;38.20
15983;DHT22;14442;50.196;8.096;2023-02-13T15:46:01;23.20;38.20
15983;DHT22;14442;50.196;8.096;2023-02-13T15:48:30;23.20;38.20
15983;DHT22;14442;50.196;8.096;2023-02-13T15:50:58;23.20;38.20
15983;DHT22;14442;50.196;8.096;2023-02-13T15:53:25;23.10;38.20
15983;DHT22;14442;50.196;8.096;2023-02-13T15:55:57;23.10;38.20
15983;DHT22;14442;50.196;8.096;2023-02-13T15:58:28;23.10;38.20
15983;DHT22;14442;50.196;8.096;2023-02-13T16:01:00;23.20;38.30
15983;DHT22;14442;50.196;8.096;2023-02-13T16:03:30;23.10;38.20
15983;DHT22;14442;50.196;8.096;2023-02-13T16:05:58;23.10;38.30
15983;DHT22;14442;50.196;8.096;2023-02-13T16:08:31;23.10;38.30
15983;DHT22;14442;50.196;8.096;2023-02-13T16:11:25;23.00;38.30
15983;DHT22;14442;50.196;8.096;2023-02-13T16:14:02;23.00;38.30